sensor_id;sensor_type;location;lat;lon;timestamp;pressure;altitude;pressure_sealevel;temperature;humidity
57374;BME280;43964;53.890;25.340;2023-03-19T00:03:44;1028.2;;;6.9;57.6
57374;BME280;43964;53.890;25.340;2023-03-19T00:08:48;1028.1;;;6.9;57.6
57374;BME280;43964;53.890;25.340;2023-03-19T00:14:22;1028.1;;;7;57.5
57374;BME280;43964;53.890;25.340;2023-03-19T00:19:22;1028;;;6.9;57.7
57374;BME280;43964;53.890;25.340;2023-03-19T00:23:44;1028;;;6.9;57.9
57374;BME280;43964;53.890;25.340;2023-03-19T00:29:22;1028;;;7;57.7
57374;BME280;43964;53.890;25.340;2023-03-19T00:33:38;1027.9;;;7;57.6
57374;BME280;43964;53.890;25.340;2023-03-19T00:38:38;1027.9;;;7;57.6
57374;BME280;43964;53.890;25.340;2023-03-19T00:43:38;1027.8;;;7;57.5
57374;BME280;43964;53.890;25.340;2023-03-19T00:49:22;1027.8;;;7;57.5
57374;BME280;43964;53.890;25.340;2023-03-19T00:53:44;1027.7;;;7;57.6
57374;BME280;43964;53.890;25.340;2023-03-19T00:58:56;1027.7;;;7;57.6
57374;BME280;43964;53.890;25.340;2023-03-19T01:04:22;1027.7;;;7;57.5
57374;BME280;43964;53.890;25.340;2023-03-19T01:08:38;1027.7;;;6.9;57.8
57374;BME280;43964;53.890;25.340;2023-03-19T01:13:54;1027.7;;;6.9;57.7
57374;BME280;43964;53.890;25.340;2023-03-19T01:19:00;1027.7;;;7;57.7
57374;BME280;43964;53.890;25.340;2023-03-19T01:24:22;1027.7;;;7;57.7
57374;BME280;43964;53.890;25.340;2023-03-19T01:28:46;1027.6;;;7;57.7
57374;BME280;43964;53.890;25.340;2023-03-19T01:34:00;1027.6;;;6.9;57.9
57374;BME280;43964;53.890;25.340;2023-03-19T01:39:22;1027.6;;;6.9;57.9
57374;BME280;43964;53.890;25.340;2023-03-19T01:43:52;1027.6;;;6.9;58
57374;BME280;43964;53.890;25.340;2023-03-19T01:48:38;1027.6;;;6.8;57.8
57374;BME280;43964;53.890;25.340;2023-03-19T01:53:50;1027.6;;;6.8;57.9
57374;BME280;43964;53.890;25.340;2023-03-19T01:58:52;1027.6;;;6.8;58.1
57374;BME280;43964;53.890;25.340;2023-03-19T02:03:44;1027.6;;;6.8;57.9
57374;BME280;43964;53.890;25.340;2023-03-19T02:09:22;1027.6;;;6.7;58
57374;BME280;43964;53.890;25.340;2023-03-19T02:14:08;1027.5;;;6.7;58.2
57374;BME280;43964;53.890;25.340;2023-03-19T02:18:44;1027.5;;;6.7;58.3
57374;BME280;43964;53.890;25.340;2023-03-19T02:23:40;1027.5;;;6.7;58.3
57374;BME280;43964;53.890;25.340;2023-03-19T02:28:45;1027.5;;;6.7;58.3
57374;BME280;43964;53.890;25.340;2023-03-19T02:33:44;1027.5;;;6.7;58.1
57374;BME280;43964;53.890;25.340;2023-03-19T02:39:06;1027.6;;;6.6;58.3
57374;BME280;43964;53.890;25.340;2023-03-19T02:44:20;1027.6;;;6.6;58.3
57374;BME280;43964;53.890;25.340;2023-03-19T02:48:38;1027.6;;;6.6;58.3
57374;BME280;43964;53.890;25.340;2023-03-19T02:54:22;1027.5;;;6.5;58.3
57374;BME280;43964;53.890;25.340;2023-03-19T02:59:22;1027.5;;;6.5;58.4
57374;BME280;43964;53.890;25.340;2023-03-19T03:04:08;1027.5;;;6.5;58.4
57374;BME280;43964;53.890;25.340;2023-03-19T03:08:48;1027.5;;;6.5;58.4
57374;BME280;43964;53.890;25.340;2023-03-19T03:14:08;1027.5;;;6.4;58.6
57374;BME280;43964;53.890;25.340;2023-03-19T03:19:04;1027.5;;;6.4;58.8
57374;BME280;43964;53.890;25.340;2023-03-19T03:24:12;1027.6;;;6.4;58.8
57374;BME280;43964;53.890;25.340;2023-03-19T03:28:38;1027.6;;;6.4;58.8
57374;BME280;43964;53.890;25.340;2023-03-19T03:34:22;1027.6;;;6.4;58.9
57374;BME280;43964;53.890;25.340;2023-03-19T03:39:00;1027.6;;;6.4;58.8
57374;BME280;43964;53.890;25.340;2023-03-19T03:43:38;1027.5;;;6.4;58.8
57374;BME280;43964;53.890;25.340;2023-03-19T03:48:44;1027.5;;;6.3;58.8
57374;BME280;43964;53.890;25.340;2023-03-19T03:54:22;1027.5;;;6.3;58.7
57374;BME280;43964;53.890;25.340;2023-03-19T03:58:38;1027.5;;;6.4;58.6
57374;BME280;43964;53.890;25.340;2023-03-19T04:03:54;1027.5;;;6.4;58.6
57374;BME280;43964;53.890;25.340;2023-03-19T04:09:22;1027.5;;;6.3;58.7
57374;BME280;43964;53.890;25.340;2023-03-19T04:13:44;1027.5;;;6.3;58.8
57374;BME280;43964;53.890;25.340;2023-03-19T04:18:44;1027.5;;;6.3;58.9
57374;BME280;43964;53.890;25.340;2023-03-19T04:23:38;1027.4;;;6.2;59
57374;BME280;43964;53.890;25.340;2023-03-19T04:29:22;1027.4;;;6.1;59.1
57374;BME280;43964;53.890;25.340;2023-03-19T04:34:12;1027.5;;;6.1;59.2
57374;BME280;43964;53.890;25.340;2023-03-19T04:38:54;1027.5;;;6.1;59.1
57374;BME280;43964;53.890;25.340;2023-03-19T04:43:44;1027.5;;;6.1;59.1
57374;BME280;43964;53.890;25.340;2023-03-19T04:48:56;1027.5;;;6.1;59.1
57374;BME280;43964;53.890;25.340;2023-03-19T04:53:44;1027.5;;;6.1;59
57374;BME280;43964;53.890;25.340;2023-03-19T04:59:04;1027.5;;;6.1;59
57374;BME280;43964;53.890;25.340;2023-03-19T05:04:22;1027.4;;;6;59.2
57374;BME280;43964;53.890;25.340;2023-03-19T05:08:38;1027.4;;;6.1;59.2
57374;BME280;43964;53.890;25.340;2023-03-19T05:14:22;1027.5;;;6.1;59.2
57374;BME280;43964;53.890;25.340;2023-03-19T05:19:08;1027.4;;;6.2;59.1
57374;BME280;43964;53.890;25.340;2023-03-19T05:23:38;1027.4;;;6.4;58.9
57374;BME280;43964;53.890;25.340;2023-03-19T05:29:22;1027.5;;;6.6;58.7
57374;BME280;43964;53.890;25.340;2023-03-19T05:33:38;1027.5;;;6.9;58.5
57374;BME280;43964;53.890;25.340;2023-03-19T05:38:44;1027.6;;;7.4;58
57374;BME280;43964;53.890;25.340;2023-03-19T05:44:02;1027.6;;;8;57.6
57374;BME280;43964;53.890;25.340;2023-03-19T05:49:22;1027.5;;;8.6;56.9
57374;BME280;43964;53.890;25.340;2023-03-19T05:53:38;1027.5;;;9.2;56.3
57374;BME280;43964;53.890;25.340;2023-03-19T05:59:20;1027.5;;;9.7;55.8
57374;BME280;43964;53.890;25.340;2023-03-19T06:04:22;1027.6;;;10;55.3
57374;BME280;43964;53.890;25.340;2023-03-19T06:09:08;1027.5;;;10.3;54.9
57374;BME280;43964;53.890;25.340;2023-03-19T06:13:38;1027.5;;;10.4;54.4
57374;BME280;43964;53.890;25.340;2023-03-19T06:19:08;1027.4;;;10.4;54
57374;BME280;43964;53.890;25.340;2023-03-19T06:23:56;1027.3;;;10.4;53.4
57374;BME280;43964;53.890;25.340;2023-03-19T06:29:10;1027.3;;;10.5;52.9
57374;BME280;43964;53.890;25.340;2023-03-19T06:33:44;1027.4;;;10.4;52.6
57374;BME280;43964;53.890;25.340;2023-03-19T06:39:22;1027.5;;;10.3;52.6
57374;BME280;43964;53.890;25.340;2023-03-19T06:43:58;1027.4;;;10.4;52.5
57374;BME280;43964;53.890;25.340;2023-03-19T06:48:38;1027.4;;;10.5;52.5
57374;BME280;43964;53.890;25.340;2023-03-19T06:53:50;1027.4;;;10.7;52
57374;BME280;43964;53.890;25.340;2023-03-19T06:59:14;1027.4;;;10.8;52.1
57374;BME280;43964;53.890;25.340;2023-03-19T07:03:38;1027.3;;;11;51.4
57374;BME280;43964;53.890;25.340;2023-03-19T07:09:08;1027.3;;;11.1;50.9
57374;BME280;43964;53.890;25.340;2023-03-19T07:14:08;1027.3;;;11.3;50.8
57374;BME280;43964;53.890;25.340;2023-03-19T07:18:38;1027.4;;;11.5;50.9
57374;BME280;43964;53.890;25.340;2023-03-19T07:24:22;1027.4;;;11.7;50.9
57374;BME280;43964;53.890;25.340;2023-03-19T07:28:54;1027.4;;;11.9;50.9
57374;BME280;43964;53.890;25.340;2023-03-19T07:33:44;1027.4;;;12.1;50.6
57374;BME280;43964;53.890;25.340;2023-03-19T07:39:14;1027.4;;;12.3;49.9
57374;BME280;43964;53.890;25.340;2023-03-19T07:44:00;1027.4;;;12.5;50
57374;BME280;43964;53.890;25.340;2023-03-19T07:48:44;1027.4;;;12.5;49.7
57374;BME280;43964;53.890;25.340;2023-03-19T07:54:02;1027.4;;;12.6;49.7
57374;BME280;43964;53.890;25.340;2023-03-19T07:58:38;1027.4;;;12.7;49.2
57374;BME280;43964;53.890;25.340;2023-03-19T08:03:50;1027.4;;;12.7;48.9
57374;BME280;43964;53.890;25.340;2023-03-19T08:08:38;1027.4;;;12.8;48.9
57374;BME280;43964;53.890;25.340;2023-03-19T08:13:44;1027.3;;;12.8;48.4
57374;BME280;43964;53.890;25.340;2023-03-19T08:19:22;1027.2;;;12.8;48
57374;BME280;43964;53.890;25.340;2023-03-19T08:24:02;1027.2;;;12.9;47.9
57374;BME280;43964;53.890;25.340;2023-03-19T08:29:02;1027.1;;;13;47.8
57374;BME280;43964;53.890;25.340;2023-03-19T08:34:21;1027.1;;;13;47.6
57374;BME280;43964;53.890;25.340;2023-03-19T08:39:00;1027.1;;;13;47.6
57374;BME280;43964;53.890;25.340;2023-03-19T08:43:44;1027.1;;;13;47.6
57374;BME280;43964;53.890;25.340;2023-03-19T08:48:52;1027.1;;;13.1;47.7
57374;BME280;43964;53.890;25.340;2023-03-19T08:54:22;1027.2;;;13.3;47.6
57374;BME280;43964;53.890;25.340;2023-03-19T08:58:44;1027.2;;;13.3;47.4
57374;BME280;43964;53.890;25.340;2023-03-19T09:04:22;1027.1;;;13.3;47.3
57374;BME280;43964;53.890;25.340;2023-03-19T09:09:22;1027;;;13.4;47
57374;BME280;43964;53.890;25.340;2023-03-19T09:14:08;1027.1;;;13.4;46.8
57374;BME280;43964;53.890;25.340;2023-03-19T09:18:56;1027.1;;;13.5;46.8
57374;BME280;43964;53.890;25.340;2023-03-19T09:24:08;1027.1;;;13.7;46.7
57374;BME280;43964;53.890;25.340;2023-03-19T09:29:04;1027;;;13.7;46.8
57374;BME280;43964;53.890;25.340;2023-03-19T09:34:14;1027;;;13.7;46.4
57374;BME280;43964;53.890;25.340;2023-03-19T09:38:38;1027;;;13.6;46.3
57374;BME280;43964;53.890;25.340;2023-03-19T09:44:04;1027;;;13.7;46.1
57374;BME280;43964;53.890;25.340;2023-03-19T09:48:53;1027;;;13.8;45.9
57374;BME280;43964;53.890;25.340;2023-03-19T09:53:45;1027;;;14.1;45.9
57374;BME280;43964;53.890;25.340;2023-03-19T09:58:50;1026.9;;;14.3;45.6
57374;BME280;43964;53.890;25.340;2023-03-19T10:04:07;1026.9;;;14.4;45.2
57374;BME280;43964;53.890;25.340;2023-03-19T10:09:45;1026.9;;;14.5;45.2
57374;BME280;43964;53.890;25.340;2023-03-19T10:14:13;1026.9;;;14.6;45.3
57374;BME280;43964;53.890;25.340;2023-03-19T10:19:08;1026.8;;;14.7;45.4
57374;BME280;43964;53.890;25.340;2023-03-19T10:23:38;1026.8;;;14.6;44.8
57374;BME280;43964;53.890;25.340;2023-03-19T10:29:21;1026.8;;;14.5;44.7
57374;BME280;43964;53.890;25.340;2023-03-19T10:34:04;1026.8;;;14.5;44.8
57374;BME280;43964;53.890;25.340;2023-03-19T10:38:44;1026.7;;;14.3;44.7
57374;BME280;43964;53.890;25.340;2023-03-19T10:43:55;1026.7;;;14.2;44.7
57374;BME280;43964;53.890;25.340;2023-03-19T10:49:22;1026.7;;;14.4;44.5
57374;BME280;43964;53.890;25.340;2023-03-19T10:53:50;1026.6;;;14.6;44.4
57374;BME280;43964;53.890;25.340;2023-03-19T10:59:23;1026.5;;;14.8;44.3
57374;BME280;43964;53.890;25.340;2023-03-19T11:04:15;1026.4;;;15.1;44
57374;BME280;43964;53.890;25.340;2023-03-19T11:09:12;1026.3;;;15.1;43.7
57374;BME280;43964;53.890;25.340;2023-03-19T11:14:05;1026.3;;;15.2;43.8
57374;BME280;43964;53.890;25.340;2023-03-19T11:19:04;1026.3;;;15.2;43.2
57374;BME280;43964;53.890;25.340;2023-03-19T11:24:20;1026.2;;;15.1;42.7
57374;BME280;43964;53.890;25.340;2023-03-19T11:29:20;1026.2;;;15.2;43
57374;BME280;43964;53.890;25.340;2023-03-19T11:33:46;1026.1;;;15.3;42.8
57374;BME280;43964;53.890;25.340;2023-03-19T11:39:24;1026;;;15.4;42.6
57374;BME280;43964;53.890;25.340;2023-03-19T11:44:01;1026;;;15.4;42.4
57374;BME280;43964;53.890;25.340;2023-03-19T11:48:48;1026;;;15.5;42.3
57374;BME280;43964;53.890;25.340;2023-03-19T11:53:59;1025.9;;;15.5;42.1
57374;BME280;43964;53.890;25.340;2023-03-19T11:59:28;1025.9;;;15.6;41.9
57374;BME280;43964;53.890;25.340;2023-03-19T12:09:24;1025.9;;;15.6;41.9
57374;BME280;43964;53.890;25.340;2023-03-19T12:14:24;1025.8;;;15.8;40.7
57374;BME280;43964;53.890;25.340;2023-03-19T12:19:06;1025.8;;;16;41.1
57374;BME280;43964;53.890;25.340;2023-03-19T12:23:48;1025.7;;;16.2;40.9
57374;BME280;43964;53.890;25.340;2023-03-19T12:29:11;1025.6;;;16.4;40.4
57374;BME280;43964;53.890;25.340;2023-03-19T12:34:09;1025.6;;;16.4;40.3
57374;BME280;43964;53.890;25.340;2023-03-19T12:39:16;1025.6;;;16.3;40.4
57374;BME280;43964;53.890;25.340;2023-03-19T12:44:04;1025.5;;;16;40
57374;BME280;43964;53.890;25.340;2023-03-19T12:49:23;1025.5;;;15.9;39.5
57374;BME280;43964;53.890;25.340;2023-03-19T12:54:05;1025.4;;;16;39.8
57374;BME280;43964;53.890;25.340;2023-03-19T12:58:42;1025.3;;;16.3;39.5
57374;BME280;43964;53.890;25.340;2023-03-19T13:03:52;1025.2;;;16.5;39.4
57374;BME280;43964;53.890;25.340;2023-03-19T13:09:15;1025.2;;;16.7;39.2
57374;BME280;43964;53.890;25.340;2023-03-19T13:13:46;1025.1;;;16.9;38.9
57374;BME280;43964;53.890;25.340;2023-03-19T13:19:10;1025.1;;;17;38.6
57374;BME280;43964;53.890;25.340;2023-03-19T13:24:20;1025;;;17.1;38
57374;BME280;43964;53.890;25.340;2023-03-19T13:28:53;1024.9;;;17.2;37.8
57374;BME280;43964;53.890;25.340;2023-03-19T13:34:24;1024.9;;;17.2;37.9
57374;BME280;43964;53.890;25.340;2023-03-19T13:38:54;1024.9;;;17.1;38.1
57374;BME280;43964;53.890;25.340;2023-03-19T13:43:51;1024.9;;;16.7;38.1
57374;BME280;43964;53.890;25.340;2023-03-19T13:49:21;1024.9;;;16.7;37.9
57374;BME280;43964;53.890;25.340;2023-03-19T13:54:30;1024.8;;;16.7;37.8
57374;BME280;43964;53.890;25.340;2023-03-19T13:58:51;1024.7;;;16.7;37.4
57374;BME280;43964;53.890;25.340;2023-03-19T14:04:05;1024.7;;;16.7;37.5
57374;BME280;43964;53.890;25.340;2023-03-19T14:09:31;1024.7;;;16.6;37.3
57374;BME280;43964;53.890;25.340;2023-03-19T14:14:11;1024.7;;;16.6;37.7
57374;BME280;43964;53.890;25.340;2023-03-19T14:18:56;1024.6;;;16.5;37.9
57374;BME280;43964;53.890;25.340;2023-03-19T14:23:39;1024.6;;;16.4;38.2
57374;BME280;43964;53.890;25.340;2023-03-19T14:29:22;1024.5;;;16.2;38.2
57374;BME280;43964;53.890;25.340;2023-03-19T14:34:23;1024.5;;;15.9;38
57374;BME280;43964;53.890;25.340;2023-03-19T14:38:46;1024.5;;;15.7;38
57374;BME280;43964;53.890;25.340;2023-03-19T14:44:09;1024.6;;;15.7;38.2
57374;BME280;43964;53.890;25.340;2023-03-19T14:49:11;1024.6;;;15.7;38.4
57374;BME280;43964;53.890;25.340;2023-03-19T14:54:15;1024.6;;;15.7;38.5
57374;BME280;43964;53.890;25.340;2023-03-19T14:58:46;1024.6;;;15.7;38.4
57374;BME280;43964;53.890;25.340;2023-03-19T15:04:22;1024.5;;;15.7;38.4
57374;BME280;43964;53.890;25.340;2023-03-19T15:08:54;1024.5;;;15.6;38.5
57374;BME280;43964;53.890;25.340;2023-03-19T15:13:43;1024.5;;;15.6;38.6
57374;BME280;43964;53.890;25.340;2023-03-19T15:19:23;1024.5;;;15.6;38.7
57374;BME280;43964;53.890;25.340;2023-03-19T15:23:38;1024.5;;;15.5;38.9
57374;BME280;43964;53.890;25.340;2023-03-19T15:28:50;1024.6;;;15.3;39.1
57374;BME280;43964;53.890;25.340;2023-03-19T15:33:44;1024.5;;;15.1;39.3
57374;BME280;43964;53.890;25.340;2023-03-19T15:39:05;1024.6;;;15;39.3
57374;BME280;43964;53.890;25.340;2023-03-19T15:44:15;1024.6;;;14.9;39.3
57374;BME280;43964;53.890;25.340;2023-03-19T15:49:01;1024.6;;;14.8;39.3
57374;BME280;43964;53.890;25.340;2023-03-19T15:53:50;1024.6;;;14.7;39.3
57374;BME280;43964;53.890;25.340;2023-03-19T15:59:04;1024.6;;;14.5;39.4
57374;BME280;43964;53.890;25.340;2023-03-19T16:03:39;1024.7;;;14.3;39.6
57374;BME280;43964;53.890;25.340;2023-03-19T16:08:51;1024.6;;;14.2;39.8
57374;BME280;43964;53.890;25.340;2023-03-19T16:13:39;1024.7;;;14.1;40
57374;BME280;43964;53.890;25.340;2023-03-19T16:18:46;1024.7;;;14;40.1
57374;BME280;43964;53.890;25.340;2023-03-19T16:24:23;1024.7;;;13.8;40.3
57374;BME280;43964;53.890;25.340;2023-03-19T16:29:16;1024.7;;;13.6;40.5
57374;BME280;43964;53.890;25.340;2023-03-19T16:33:38;1024.7;;;13.5;40.7
57374;BME280;43964;53.890;25.340;2023-03-19T16:39:23;1024.7;;;13.4;41
57374;BME280;43964;53.890;25.340;2023-03-19T16:44:11;1024.8;;;13.2;41.4
57374;BME280;43964;53.890;25.340;2023-03-19T16:48:44;1024.8;;;12.9;41.8
57374;BME280;43964;53.890;25.340;2023-03-19T16:53:56;1024.8;;;12.6;42.2
57374;BME280;43964;53.890;25.340;2023-03-19T16:59:25;1024.9;;;12.3;42.6
57374;BME280;43964;53.890;25.340;2023-03-19T17:03:38;1024.9;;;12.1;42.9
57374;BME280;43964;53.890;25.340;2023-03-19T17:09:24;1025;;;11.9;43
57374;BME280;43964;53.890;25.340;2023-03-19T17:14:24;1025;;;11.9;43
57374;BME280;43964;53.890;25.340;2023-03-19T17:19:13;1025;;;11.8;43.1
57374;BME280;43964;53.890;25.340;2023-03-19T17:23:58;1025;;;11.7;43.3
57374;BME280;43964;53.890;25.340;2023-03-19T17:28:50;1025.1;;;11.7;43.5
57374;BME280;43964;53.890;25.340;2023-03-19T17:34:08;1025.1;;;11.6;43.9
57374;BME280;43964;53.890;25.340;2023-03-19T17:39:18;1025.1;;;11.6;44.3
57374;BME280;43964;53.890;25.340;2023-03-19T17:43:40;1025;;;11.6;44.5
57374;BME280;43964;53.890;25.340;2023-03-19T17:49:21;1025;;;11.7;44.7
57374;BME280;43964;53.890;25.340;2023-03-19T17:54:02;1025;;;11.6;44.8
57374;BME280;43964;53.890;25.340;2023-03-19T17:58:48;1025;;;11.6;44.8
57374;BME280;43964;53.890;25.340;2023-03-19T18:03:47;1025;;;11.6;44.5
57374;BME280;43964;53.890;25.340;2023-03-19T18:09:08;1025;;;11.5;44.7
57374;BME280;43964;53.890;25.340;2023-03-19T18:13:48;1025;;;11.3;45.2
57374;BME280;43964;53.890;25.340;2023-03-19T18:19:15;1025;;;11.3;45.6
57374;BME280;43964;53.890;25.340;2023-03-19T18:24:12;1025;;;11.2;45.8
57374;BME280;43964;53.890;25.340;2023-03-19T18:28:40;1025;;;11;46.2
57374;BME280;43964;53.890;25.340;2023-03-19T18:34:18;1025;;;10.9;46.4
57374;BME280;43964;53.890;25.340;2023-03-19T18:39:05;1025;;;10.9;46.5
57374;BME280;43964;53.890;25.340;2023-03-19T18:43:41;1025;;;10.8;46.5
57374;BME280;43964;53.890;25.340;2023-03-19T18:48:42;1025;;;10.6;46.6
57374;BME280;43964;53.890;25.340;2023-03-19T18:54:26;1025;;;10.5;46.7
57374;BME280;43964;53.890;25.340;2023-03-19T18:59:07;1025;;;10.4;46.9
57374;BME280;43964;53.890;25.340;2023-03-19T19:04:08;1025;;;10.4;46.8
57374;BME280;43964;53.890;25.340;2023-03-19T19:09:18;1025;;;10.3;46.8
57374;BME280;43964;53.890;25.340;2023-03-19T19:14:14;1025;;;10.1;47.2
57374;BME280;43964;53.890;25.340;2023-03-19T19:19:05;1025.1;;;10.1;47.5
57374;BME280;43964;53.890;25.340;2023-03-19T19:24:00;1025.1;;;10;47.8
57374;BME280;43964;53.890;25.340;2023-03-19T19:29:26;1025;;;10.1;47.9
57374;BME280;43964;53.890;25.340;2023-03-19T19:34:18;1025.1;;;10.1;47.8
57374;BME280;43964;53.890;25.340;2023-03-19T19:38:48;1025.1;;;10.1;48
57374;BME280;43964;53.890;25.340;2023-03-19T19:44:10;1025.1;;;10;48.2
57374;BME280;43964;53.890;25.340;2023-03-19T19:49:04;1025.1;;;10;48.2
57374;BME280;43964;53.890;25.340;2023-03-19T19:53:40;1025.1;;;10;48.3
57374;BME280;43964;53.890;25.340;2023-03-19T19:58:54;1025.1;;;10;48.6
57374;BME280;43964;53.890;25.340;2023-03-19T20:04:26;1025.1;;;10;48.7
57374;BME280;43964;53.890;25.340;2023-03-19T20:08:48;1025.1;;;9.9;48.8
57374;BME280;43964;53.890;25.340;2023-03-19T20:14:26;1025.1;;;9.9;48.9
57374;BME280;43964;53.890;25.340;2023-03-19T20:19:26;1025.1;;;9.8;49
57374;BME280;43964;53.890;25.340;2023-03-19T20:24:12;1025.2;;;9.8;49
57374;BME280;43964;53.890;25.340;2023-03-19T20:29:00;1025.2;;;9.7;49
57374;BME280;43964;53.890;25.340;2023-03-19T20:34:13;1025.2;;;9.7;49.1
57374;BME280;43964;53.890;25.340;2023-03-19T20:39:08;1025.2;;;9.6;49.3
57374;BME280;43964;53.890;25.340;2023-03-19T20:44:18;1025.2;;;9.6;49.3
57374;BME280;43964;53.890;25.340;2023-03-19T20:48:48;1025.2;;;9.5;49.5
57374;BME280;43964;53.890;25.340;2023-03-19T20:54:26;1025.2;;;9.4;50
57374;BME280;43964;53.890;25.340;2023-03-19T20:59:08;1025.2;;;9.3;50.3
57374;BME280;43964;53.890;25.340;2023-03-19T21:03:40;1025.2;;;9.3;50.5
57374;BME280;43964;53.890;25.340;2023-03-19T21:08:54;1025.2;;;9.2;50.5
57374;BME280;43964;53.890;25.340;2023-03-19T21:13:43;1025.2;;;9.2;50.4
57374;BME280;43964;53.890;25.340;2023-03-19T21:18:48;1025.2;;;9.1;50.5
57374;BME280;43964;53.890;25.340;2023-03-19T21:24:13;1025.1;;;8.9;50.6
57374;BME280;43964;53.890;25.340;2023-03-19T21:29:13;1025.2;;;8.9;50.7
57374;BME280;43964;53.890;25.340;2023-03-19T21:33:49;1025.2;;;8.8;50.8
57374;BME280;43964;53.890;25.340;2023-03-19T21:39:24;1025.2;;;8.6;51.4
57374;BME280;43964;53.890;25.340;2023-03-19T21:44:05;1025.2;;;8.4;51.7
57374;BME280;43964;53.890;25.340;2023-03-19T21:48:55;1025.2;;;8.3;52
57374;BME280;43964;53.890;25.340;2023-03-19T21:54:02;1025.3;;;8.2;52.3
57374;BME280;43964;53.890;25.340;2023-03-19T21:59:26;1025.3;;;8.1;52.5
57374;BME280;43964;53.890;25.340;2023-03-19T22:03:48;1025.3;;;8;52.5
57374;BME280;43964;53.890;25.340;2023-03-19T22:08:56;1025.2;;;8;52.5
57374;BME280;43964;53.890;25.340;2023-03-19T22:14:20;1025.2;;;8;52.5
57374;BME280;43964;53.890;25.340;2023-03-19T22:19:13;1025.1;;;8.1;52.5
57374;BME280;43964;53.890;25.340;2023-03-19T22:24:22;1025.1;;;8.1;52.6
57374;BME280;43964;53.890;25.340;2023-03-19T22:28:40;1025;;;8.2;52.7
57374;BME280;43964;53.890;25.340;2023-03-19T22:34:26;1025;;;8.2;53.1
57374;BME280;43964;53.890;25.340;2023-03-19T22:39:24;1024.9;;;8.2;53.3
57374;BME280;43964;53.890;25.340;2023-03-19T22:43:40;1024.9;;;8.3;53.4
57374;BME280;43964;53.890;25.340;2023-03-19T22:49:24;1024.9;;;8.3;53.4
57374;BME280;43964;53.890;25.340;2023-03-19T22:54:04;1024.9;;;8.3;53.5
57374;BME280;43964;53.890;25.340;2023-03-19T22:58:40;1024.8;;;8.4;53.3
57374;BME280;43964;53.890;25.340;2023-03-19T23:03:54;1024.8;;;8.3;53.3
57374;BME280;43964;53.890;25.340;2023-03-19T23:09:25;1024.7;;;8.3;53.4
57374;BME280;43964;53.890;25.340;2023-03-19T23:13:48;1024.7;;;8.2;53.3
57374;BME280;43964;53.890;25.340;2023-03-19T23:18:40;1024.7;;;8.2;53.5
57374;BME280;43964;53.890;25.340;2023-03-19T23:24:25;1024.8;;;8.3;53.5
57374;BME280;43964;53.890;25.340;2023-03-19T23:28:40;1024.8;;;8.3;53.6
57374;BME280;43964;53.890;25.340;2023-03-19T23:33:58;1024.7;;;8.3;53.9
57374;BME280;43964;53.890;25.340;2023-03-19T23:39:04;1024.6;;;8.2;54
57374;BME280;43964;53.890;25.340;2023-03-19T23:44:24;1024.5;;;8.2;54.1
57374;BME280;43964;53.890;25.340;2023-03-19T23:49:20;1024.5;;;8.2;54.1
57374;BME280;43964;53.890;25.340;2023-03-19T23:53:54;1024.5;;;8.2;54.2
57374;BME280;43964;53.890;25.340;2023-03-19T23:58:53;1024.4;;;8.2;54.1
